sensor_id;sensor_type;location;lat;lon;timestamp;P1;durP1;ratioP1;P2;durP2;ratioP2
12593;SDS011;6362;50.208;9.182;2023-07-28T00:01:23;3.45;;;2.83;;
12593;SDS011;6362;50.208;9.182;2023-07-28T00:03:48;3.88;;;1.92;;
12593;SDS011;6362;50.208;9.182;2023-07-28T00:06:14;3.58;;;1.92;;
12593;SDS011;6362;50.208;9.182;2023-07-28T00:08:39;3.95;;;2.10;;
12593;SDS011;6362;50.208;9.182;2023-07-28T00:11:08;5.38;;;2.03;;
12593;SDS011;6362;50.208;9.182;2023-07-28T00:13:40;2.42;;;1.90;;
12593;SDS011;6362;50.208;9.182;2023-07-28T00:16:06;3.28;;;2.13;;
12593;SDS011;6362;50.208;9.182;2023-07-28T00:18:32;3.13;;;2.35;;
12593;SDS011;6362;50.208;9.182;2023-07-28T00:20:57;4.18;;;2.50;;
12593;SDS011;6362;50.208;9.182;2023-07-28T00:23:23;3.65;;;2.45;;
12593;SDS011;6362;50.208;9.182;2023-07-28T00:25:49;3.00;;;2.28;;
12593;SDS011;6362;50.208;9.182;2023-07-28T00:28:15;2.60;;;2.10;;
12593;SDS011;6362;50.208;9.182;2023-07-28T00:30:40;2.55;;;1.88;;
12593;SDS011;6362;50.208;9.182;2023-07-28T00:33:05;5.20;;;1.80;;
12593;SDS011;6362;50.208;9.182;2023-07-28T00:35:31;4.28;;;2.45;;
12593;SDS011;6362;50.208;9.182;2023-07-28T00:37:57;3.30;;;2.03;;
12593;SDS011;6362;50.208;9.182;2023-07-28T00:40:23;3.50;;;1.92;;
12593;SDS011;6362;50.208;9.182;2023-07-28T00:42:48;3.70;;;2.33;;
12593;SDS011;6362;50.208;9.182;2023-07-28T00:45:14;3.15;;;2.17;;
12593;SDS011;6362;50.208;9.182;2023-07-28T00:47:40;2.38;;;2.00;;
12593;SDS011;6362;50.208;9.182;2023-07-28T00:50:06;2.75;;;2.28;;
12593;SDS011;6362;50.208;9.182;2023-07-28T00:52:33;3.20;;;2.03;;
12593;SDS011;6362;50.208;9.182;2023-07-28T00:54:59;2.85;;;1.90;;
12593;SDS011;6362;50.208;9.182;2023-07-28T00:57:25;3.30;;;2.13;;
12593;SDS011;6362;50.208;9.182;2023-07-28T00:59:50;3.83;;;2.80;;
12593;SDS011;6362;50.208;9.182;2023-07-28T01:02:16;3.22;;;2.22;;
12593;SDS011;6362;50.208;9.182;2023-07-28T01:04:41;2.40;;;1.80;;
12593;SDS011;6362;50.208;9.182;2023-07-28T01:07:12;2.53;;;2.15;;
12593;SDS011;6362;50.208;9.182;2023-07-28T01:09:51;5.43;;;2.55;;
12593;SDS011;6362;50.208;9.182;2023-07-28T01:12:21;3.78;;;2.15;;
12593;SDS011;6362;50.208;9.182;2023-07-28T01:14:49;2.50;;;1.90;;
12593;SDS011;6362;50.208;9.182;2023-07-28T01:17:14;2.60;;;2.15;;
12593;SDS011;6362;50.208;9.182;2023-07-28T01:19:40;3.30;;;2.50;;
12593;SDS011;6362;50.208;9.182;2023-07-28T01:27:20;3.30;;;2.30;;
12593;SDS011;6362;50.208;9.182;2023-07-28T01:29:46;4.97;;;2.20;;
12593;SDS011;6362;50.208;9.182;2023-07-28T01:32:13;3.63;;;1.90;;
12593;SDS011;6362;50.208;9.182;2023-07-28T01:34:39;3.90;;;1.92;;
12593;SDS011;6362;50.208;9.182;2023-07-28T01:37:04;2.70;;;2.00;;
12593;SDS011;6362;50.208;9.182;2023-07-28T01:39:30;4.95;;;2.47;;
12593;SDS011;6362;50.208;9.182;2023-07-28T01:41:56;5.15;;;2.45;;
12593;SDS011;6362;50.208;9.182;2023-07-28T01:44:21;3.28;;;2.30;;
12593;SDS011;6362;50.208;9.182;2023-07-28T01:46:46;3.13;;;1.90;;
12593;SDS011;6362;50.208;9.182;2023-07-28T01:49:12;4.57;;;2.08;;
12593;SDS011;6362;50.208;9.182;2023-07-28T01:51:37;2.28;;;1.90;;
12593;SDS011;6362;50.208;9.182;2023-07-28T01:54:03;2.60;;;1.98;;
12593;SDS011;6362;50.208;9.182;2023-07-28T01:56:28;4.32;;;2.22;;
12593;SDS011;6362;50.208;9.182;2023-07-28T01:58:53;3.63;;;2.28;;
12593;SDS011;6362;50.208;9.182;2023-07-28T02:01:19;3.80;;;2.17;;
12593;SDS011;6362;50.208;9.182;2023-07-28T02:03:44;4.88;;;2.60;;
12593;SDS011;6362;50.208;9.182;2023-07-28T02:06:09;2.85;;;2.05;;
12593;SDS011;6362;50.208;9.182;2023-07-28T02:08:35;4.07;;;2.47;;
12593;SDS011;6362;50.208;9.182;2023-07-28T02:11:00;4.03;;;2.28;;
12593;SDS011;6362;50.208;9.182;2023-07-28T02:13:26;4.03;;;2.00;;
12593;SDS011;6362;50.208;9.182;2023-07-28T02:15:51;4.40;;;2.28;;
12593;SDS011;6362;50.208;9.182;2023-07-28T02:18:16;4.57;;;2.40;;
12593;SDS011;6362;50.208;9.182;2023-07-28T02:20:42;3.00;;;2.17;;
12593;SDS011;6362;50.208;9.182;2023-07-28T02:23:07;2.65;;;2.13;;
12593;SDS011;6362;50.208;9.182;2023-07-28T02:25:33;4.03;;;2.50;;
12593;SDS011;6362;50.208;9.182;2023-07-28T02:27:58;3.65;;;2.10;;
12593;SDS011;6362;50.208;9.182;2023-07-28T02:30:24;3.40;;;2.15;;
12593;SDS011;6362;50.208;9.182;2023-07-28T02:32:49;2.60;;;2.10;;
12593;SDS011;6362;50.208;9.182;2023-07-28T02:35:14;3.05;;;2.38;;
12593;SDS011;6362;50.208;9.182;2023-07-28T02:37:40;3.75;;;2.75;;
12593;SDS011;6362;50.208;9.182;2023-07-28T02:40:06;2.70;;;2.10;;
12593;SDS011;6362;50.208;9.182;2023-07-28T02:42:32;3.55;;;2.30;;
12593;SDS011;6362;50.208;9.182;2023-07-28T02:44:59;2.88;;;2.55;;
12593;SDS011;6362;50.208;9.182;2023-07-28T02:47:24;2.67;;;2.30;;
12593;SDS011;6362;50.208;9.182;2023-07-28T02:49:50;3.20;;;2.42;;
12593;SDS011;6362;50.208;9.182;2023-07-28T02:52:15;3.20;;;2.33;;
12593;SDS011;6362;50.208;9.182;2023-07-28T02:54:40;2.35;;;1.95;;
12593;SDS011;6362;50.208;9.182;2023-07-28T02:57:06;4.00;;;2.03;;
12593;SDS011;6362;50.208;9.182;2023-07-28T02:59:31;3.45;;;2.55;;
12593;SDS011;6362;50.208;9.182;2023-07-28T03:01:57;3.15;;;2.30;;
12593;SDS011;6362;50.208;9.182;2023-07-28T03:04:22;3.67;;;2.60;;
12593;SDS011;6362;50.208;9.182;2023-07-28T03:06:47;3.65;;;2.28;;
12593;SDS011;6362;50.208;9.182;2023-07-28T03:09:13;4.03;;;2.42;;
12593;SDS011;6362;50.208;9.182;2023-07-28T03:11:40;2.85;;;2.47;;
12593;SDS011;6362;50.208;9.182;2023-07-28T03:14:07;3.42;;;2.60;;
12593;SDS011;6362;50.208;9.182;2023-07-28T03:16:32;3.85;;;2.47;;
12593;SDS011;6362;50.208;9.182;2023-07-28T03:18:58;2.42;;;2.20;;
12593;SDS011;6362;50.208;9.182;2023-07-28T03:21:23;3.45;;;2.38;;
12593;SDS011;6362;50.208;9.182;2023-07-28T03:23:49;3.10;;;2.38;;
12593;SDS011;6362;50.208;9.182;2023-07-28T03:26:14;4.75;;;2.60;;
12593;SDS011;6362;50.208;9.182;2023-07-28T03:28:39;3.17;;;2.22;;
12593;SDS011;6362;50.208;9.182;2023-07-28T03:31:05;4.20;;;3.08;;
12593;SDS011;6362;50.208;9.182;2023-07-28T03:33:30;6.03;;;2.78;;
12593;SDS011;6362;50.208;9.182;2023-07-28T03:35:56;4.18;;;2.67;;
12593;SDS011;6362;50.208;9.182;2023-07-28T03:38:21;3.38;;;2.60;;
12593;SDS011;6362;50.208;9.182;2023-07-28T03:40:47;3.10;;;2.47;;
12593;SDS011;6362;50.208;9.182;2023-07-28T03:43:12;3.72;;;2.30;;
12593;SDS011;6362;50.208;9.182;2023-07-28T03:45:37;2.90;;;2.35;;
12593;SDS011;6362;50.208;9.182;2023-07-28T03:48:03;6.40;;;2.70;;
12593;SDS011;6362;50.208;9.182;2023-07-28T03:50:28;3.55;;;2.58;;
12593;SDS011;6362;50.208;9.182;2023-07-28T03:52:54;3.67;;;2.50;;
12593;SDS011;6362;50.208;9.182;2023-07-28T03:55:19;3.65;;;2.67;;
12593;SDS011;6362;50.208;9.182;2023-07-28T03:57:44;5.50;;;2.65;;
12593;SDS011;6362;50.208;9.182;2023-07-28T04:00:10;3.63;;;2.60;;
12593;SDS011;6362;50.208;9.182;2023-07-28T04:02:36;4.15;;;2.53;;
12593;SDS011;6362;50.208;9.182;2023-07-28T04:05:01;3.40;;;2.35;;
12593;SDS011;6362;50.208;9.182;2023-07-28T04:07:27;4.90;;;2.50;;
12593;SDS011;6362;50.208;9.182;2023-07-28T04:09:52;3.75;;;2.25;;
12593;SDS011;6362;50.208;9.182;2023-07-28T04:12:17;4.68;;;2.38;;
12593;SDS011;6362;50.208;9.182;2023-07-28T04:14:43;2.92;;;2.45;;
12593;SDS011;6362;50.208;9.182;2023-07-28T04:17:08;3.17;;;2.40;;
12593;SDS011;6362;50.208;9.182;2023-07-28T04:19:34;4.68;;;2.70;;
12593;SDS011;6362;50.208;9.182;2023-07-28T04:21:59;4.18;;;2.50;;
12593;SDS011;6362;50.208;9.182;2023-07-28T04:24:26;4.35;;;2.92;;
12593;SDS011;6362;50.208;9.182;2023-07-28T04:26:51;3.03;;;2.38;;
12593;SDS011;6362;50.208;9.182;2023-07-28T04:29:17;3.17;;;2.45;;
12593;SDS011;6362;50.208;9.182;2023-07-28T04:31:43;6.70;;;2.83;;
12593;SDS011;6362;50.208;9.182;2023-07-28T04:34:08;3.65;;;2.20;;
12593;SDS011;6362;50.208;9.182;2023-07-28T04:36:34;4.93;;;2.60;;
12593;SDS011;6362;50.208;9.182;2023-07-28T04:38:59;6.32;;;3.15;;
12593;SDS011;6362;50.208;9.182;2023-07-28T04:41:25;4.00;;;2.45;;
12593;SDS011;6362;50.208;9.182;2023-07-28T04:43:50;2.83;;;2.40;;
12593;SDS011;6362;50.208;9.182;2023-07-28T04:46:16;3.65;;;2.30;;
12593;SDS011;6362;50.208;9.182;2023-07-28T04:48:41;4.40;;;2.10;;
12593;SDS011;6362;50.208;9.182;2023-07-28T04:51:07;2.97;;;2.67;;
12593;SDS011;6362;50.208;9.182;2023-07-28T04:53:32;6.60;;;2.97;;
12593;SDS011;6362;50.208;9.182;2023-07-28T04:55:57;5.28;;;2.67;;
12593;SDS011;6362;50.208;9.182;2023-07-28T04:58:23;11.68;;;3.03;;
12593;SDS011;6362;50.208;9.182;2023-07-28T05:00:48;3.92;;;2.92;;
12593;SDS011;6362;50.208;9.182;2023-07-28T05:03:14;4.15;;;2.42;;
12593;SDS011;6362;50.208;9.182;2023-07-28T05:05:42;3.10;;;2.30;;
12593;SDS011;6362;50.208;9.182;2023-07-28T05:08:08;4.32;;;2.80;;
12593;SDS011;6362;50.208;9.182;2023-07-28T05:10:33;3.78;;;2.75;;
12593;SDS011;6362;50.208;9.182;2023-07-28T05:12:59;3.88;;;2.85;;
12593;SDS011;6362;50.208;9.182;2023-07-28T05:15:24;4.10;;;2.60;;
12593;SDS011;6362;50.208;9.182;2023-07-28T05:17:49;3.63;;;2.70;;
12593;SDS011;6362;50.208;9.182;2023-07-28T05:20:15;3.03;;;2.47;;
12593;SDS011;6362;50.208;9.182;2023-07-28T05:22:41;3.45;;;2.13;;
12593;SDS011;6362;50.208;9.182;2023-07-28T05:25:06;3.42;;;2.00;;
12593;SDS011;6362;50.208;9.182;2023-07-28T05:27:32;3.90;;;2.42;;
12593;SDS011;6362;50.208;9.182;2023-07-28T05:29:57;3.72;;;2.47;;
12593;SDS011;6362;50.208;9.182;2023-07-28T05:32:23;3.60;;;2.58;;
12593;SDS011;6362;50.208;9.182;2023-07-28T05:34:49;3.25;;;2.15;;
12593;SDS011;6362;50.208;9.182;2023-07-28T05:37:14;3.67;;;2.33;;
12593;SDS011;6362;50.208;9.182;2023-07-28T05:39:39;3.85;;;2.30;;
12593;SDS011;6362;50.208;9.182;2023-07-28T05:42:05;3.10;;;2.10;;
12593;SDS011;6362;50.208;9.182;2023-07-28T05:44:31;2.63;;;2.20;;
12593;SDS011;6362;50.208;9.182;2023-07-28T05:46:56;2.78;;;2.40;;
12593;SDS011;6362;50.208;9.182;2023-07-28T05:49:21;3.75;;;2.22;;
12593;SDS011;6362;50.208;9.182;2023-07-28T05:51:47;2.25;;;2.00;;
12593;SDS011;6362;50.208;9.182;2023-07-28T05:54:12;4.03;;;2.65;;
12593;SDS011;6362;50.208;9.182;2023-07-28T05:56:41;2.92;;;2.03;;
12593;SDS011;6362;50.208;9.182;2023-07-28T05:59:06;3.20;;;2.20;;
12593;SDS011;6362;50.208;9.182;2023-07-28T06:01:32;4.35;;;2.17;;
12593;SDS011;6362;50.208;9.182;2023-07-28T06:03:58;3.35;;;2.17;;
12593;SDS011;6362;50.208;9.182;2023-07-28T06:06:25;4.45;;;3.08;;
12593;SDS011;6362;50.208;9.182;2023-07-28T06:08:52;2.75;;;2.00;;
12593;SDS011;6362;50.208;9.182;2023-07-28T06:11:18;3.13;;;1.98;;
12593;SDS011;6362;50.208;9.182;2023-07-28T06:13:43;3.13;;;2.05;;
12593;SDS011;6362;50.208;9.182;2023-07-28T06:16:10;2.97;;;1.80;;
12593;SDS011;6362;50.208;9.182;2023-07-28T06:18:35;3.47;;;1.70;;
12593;SDS011;6362;50.208;9.182;2023-07-28T06:21:01;4.15;;;2.15;;
12593;SDS011;6362;50.208;9.182;2023-07-28T06:23:26;2.47;;;1.70;;
12593;SDS011;6362;50.208;9.182;2023-07-28T06:25:52;3.05;;;2.00;;
12593;SDS011;6362;50.208;9.182;2023-07-28T06:28:19;3.13;;;1.95;;
12593;SDS011;6362;50.208;9.182;2023-07-28T06:30:45;2.78;;;1.75;;
12593;SDS011;6362;50.208;9.182;2023-07-28T06:33:10;2.67;;;1.67;;
12593;SDS011;6362;50.208;9.182;2023-07-28T06:35:36;3.20;;;1.65;;
12593;SDS011;6362;50.208;9.182;2023-07-28T06:38:01;3.55;;;1.95;;
12593;SDS011;6362;50.208;9.182;2023-07-28T06:40:28;2.58;;;2.03;;
12593;SDS011;6362;50.208;9.182;2023-07-28T06:42:54;5.10;;;1.67;;
12593;SDS011;6362;50.208;9.182;2023-07-28T06:45:20;3.20;;;1.95;;
12593;SDS011;6362;50.208;9.182;2023-07-28T06:47:46;1.75;;;1.48;;
12593;SDS011;6362;50.208;9.182;2023-07-28T06:50:11;2.30;;;1.67;;
12593;SDS011;6362;50.208;9.182;2023-07-28T06:52:37;2.72;;;1.95;;
12593;SDS011;6362;50.208;9.182;2023-07-28T06:55:03;2.42;;;1.55;;
12593;SDS011;6362;50.208;9.182;2023-07-28T06:57:28;1.70;;;1.50;;
12593;SDS011;6362;50.208;9.182;2023-07-28T06:59:55;1.45;;;1.35;;
12593;SDS011;6362;50.208;9.182;2023-07-28T07:02:21;3.20;;;1.80;;
12593;SDS011;6362;50.208;9.182;2023-07-28T07:04:47;3.65;;;1.55;;
12593;SDS011;6362;50.208;9.182;2023-07-28T07:07:12;2.25;;;1.42;;
12593;SDS011;6362;50.208;9.182;2023-07-28T07:09:37;2.38;;;1.60;;
12593;SDS011;6362;50.208;9.182;2023-07-28T07:12:03;1.80;;;1.50;;
12593;SDS011;6362;50.208;9.182;2023-07-28T07:14:29;2.10;;;1.77;;
12593;SDS011;6362;50.208;9.182;2023-07-28T07:16:54;2.92;;;1.80;;
12593;SDS011;6362;50.208;9.182;2023-07-28T07:19:20;3.15;;;1.70;;
12593;SDS011;6362;50.208;9.182;2023-07-28T07:21:45;2.28;;;1.70;;
12593;SDS011;6362;50.208;9.182;2023-07-28T07:24:12;2.58;;;1.90;;
12593;SDS011;6362;50.208;9.182;2023-07-28T07:26:41;2.30;;;1.50;;
12593;SDS011;6362;50.208;9.182;2023-07-28T07:29:10;2.17;;;1.42;;
12593;SDS011;6362;50.208;9.182;2023-07-28T07:31:35;2.33;;;1.55;;
12593;SDS011;6362;50.208;9.182;2023-07-28T07:34:01;2.72;;;1.25;;
12593;SDS011;6362;50.208;9.182;2023-07-28T07:36:26;2.00;;;1.20;;
12593;SDS011;6362;50.208;9.182;2023-07-28T07:38:51;2.10;;;1.50;;
12593;SDS011;6362;50.208;9.182;2023-07-28T07:41:17;2.38;;;1.42;;
12593;SDS011;6362;50.208;9.182;2023-07-28T07:43:45;3.45;;;1.35;;
12593;SDS011;6362;50.208;9.182;2023-07-28T07:46:12;1.38;;;1.10;;
12593;SDS011;6362;50.208;9.182;2023-07-28T07:48:38;1.63;;;1.40;;
12593;SDS011;6362;50.208;9.182;2023-07-28T07:51:03;2.67;;;1.25;;
12593;SDS011;6362;50.208;9.182;2023-07-28T07:53:29;1.60;;;1.40;;
12593;SDS011;6362;50.208;9.182;2023-07-28T07:55:54;1.38;;;1.08;;
12593;SDS011;6362;50.208;9.182;2023-07-28T07:58:19;1.77;;;1.08;;
12593;SDS011;6362;50.208;9.182;2023-07-28T08:00:45;1.45;;;0.98;;
12593;SDS011;6362;50.208;9.182;2023-07-28T08:03:11;1.77;;;1.38;;
12593;SDS011;6362;50.208;9.182;2023-07-28T08:05:36;1.88;;;1.40;;
12593;SDS011;6362;50.208;9.182;2023-07-28T08:08:02;1.48;;;1.10;;
12593;SDS011;6362;50.208;9.182;2023-07-28T08:10:28;1.75;;;1.27;;
12593;SDS011;6362;50.208;9.182;2023-07-28T08:12:54;1.92;;;1.00;;
12593;SDS011;6362;50.208;9.182;2023-07-28T08:15:20;1.95;;;1.30;;
12593;SDS011;6362;50.208;9.182;2023-07-28T08:17:45;2.15;;;0.95;;
12593;SDS011;6362;50.208;9.182;2023-07-28T08:20:11;2.13;;;1.40;;
12593;SDS011;6362;50.208;9.182;2023-07-28T08:22:37;1.60;;;1.17;;
12593;SDS011;6362;50.208;9.182;2023-07-28T08:25:03;1.17;;;1.08;;
12593;SDS011;6362;50.208;9.182;2023-07-28T08:27:29;1.15;;;0.77;;
12593;SDS011;6362;50.208;9.182;2023-07-28T08:29:55;1.45;;;1.23;;
12593;SDS011;6362;50.208;9.182;2023-07-28T08:32:20;2.00;;;1.67;;
12593;SDS011;6362;50.208;9.182;2023-07-28T08:34:47;0.98;;;0.80;;
12593;SDS011;6362;50.208;9.182;2023-07-28T08:37:12;1.90;;;1.23;;
12593;SDS011;6362;50.208;9.182;2023-07-28T08:39:38;1.67;;;1.08;;
12593;SDS011;6362;50.208;9.182;2023-07-28T08:42:04;1.48;;;0.88;;
12593;SDS011;6362;50.208;9.182;2023-07-28T08:44:33;1.77;;;0.80;;
12593;SDS011;6362;50.208;9.182;2023-07-28T08:47:00;2.80;;;1.13;;
12593;SDS011;6362;50.208;9.182;2023-07-28T08:49:27;1.67;;;0.90;;
12593;SDS011;6362;50.208;9.182;2023-07-28T08:51:56;1.25;;;0.88;;
12593;SDS011;6362;50.208;9.182;2023-07-28T08:54:23;1.33;;;0.95;;
12593;SDS011;6362;50.208;9.182;2023-07-28T08:56:48;0.80;;;0.73;;
12593;SDS011;6362;50.208;9.182;2023-07-28T08:59:21;2.63;;;1.10;;
12593;SDS011;6362;50.208;9.182;2023-07-28T09:01:55;1.92;;;1.17;;
12593;SDS011;6362;50.208;9.182;2023-07-28T09:04:23;1.83;;;0.77;;
12593;SDS011;6362;50.208;9.182;2023-07-28T09:06:49;0.70;;;0.70;;
12593;SDS011;6362;50.208;9.182;2023-07-28T09:09:16;0.90;;;0.70;;
12593;SDS011;6362;50.208;9.182;2023-07-28T09:11:48;1.65;;;0.98;;
12593;SDS011;6362;50.208;9.182;2023-07-28T09:14:16;1.25;;;0.90;;
12593;SDS011;6362;50.208;9.182;2023-07-28T09:16:43;1.25;;;0.80;;
12593;SDS011;6362;50.208;9.182;2023-07-28T09:19:09;1.10;;;0.63;;
12593;SDS011;6362;50.208;9.182;2023-07-28T09:21:37;2.10;;;1.00;;
12593;SDS011;6362;50.208;9.182;2023-07-28T09:24:04;1.23;;;0.60;;
12593;SDS011;6362;50.208;9.182;2023-07-28T09:26:41;1.98;;;0.70;;
12593;SDS011;6362;50.208;9.182;2023-07-28T09:29:14;0.80;;;0.70;;
12593;SDS011;6362;50.208;9.182;2023-07-28T09:31:44;0.82;;;0.70;;
12593;SDS011;6362;50.208;9.182;2023-07-28T09:34:22;0.80;;;0.70;;
12593;SDS011;6362;50.208;9.182;2023-07-28T09:36:51;0.70;;;0.70;;
12593;SDS011;6362;50.208;9.182;2023-07-28T09:39:19;1.98;;;0.63;;
12593;SDS011;6362;50.208;9.182;2023-07-28T09:41:45;1.92;;;1.02;;
12593;SDS011;6362;50.208;9.182;2023-07-28T09:44:11;1.73;;;0.60;;
12593;SDS011;6362;50.208;9.182;2023-07-28T09:46:37;1.20;;;0.60;;
12593;SDS011;6362;50.208;9.182;2023-07-28T09:49:36;0.63;;;0.40;;
12593;SDS011;6362;50.208;9.182;2023-07-28T09:52:05;1.67;;;0.60;;
12593;SDS011;6362;50.208;9.182;2023-07-28T09:54:34;3.03;;;0.55;;
12593;SDS011;6362;50.208;9.182;2023-07-28T09:57:04;0.60;;;0.40;;
12593;SDS011;6362;50.208;9.182;2023-07-28T09:59:37;0.70;;;0.60;;
12593;SDS011;6362;50.208;9.182;2023-07-28T10:02:04;0.85;;;0.55;;
12593;SDS011;6362;50.208;9.182;2023-07-28T10:04:30;1.02;;;0.70;;
12593;SDS011;6362;50.208;9.182;2023-07-28T10:06:57;3.33;;;0.52;;
12593;SDS011;6362;50.208;9.182;2023-07-28T10:09:26;2.25;;;0.68;;
12593;SDS011;6362;50.208;9.182;2023-07-28T10:11:53;0.75;;;0.43;;
12593;SDS011;6362;50.208;9.182;2023-07-28T10:14:27;0.60;;;0.50;;
12593;SDS011;6362;50.208;9.182;2023-07-28T10:16:57;0.70;;;0.57;;
12593;SDS011;6362;50.208;9.182;2023-07-28T10:19:26;1.00;;;0.63;;
12593;SDS011;6362;50.208;9.182;2023-07-28T10:22:02;1.08;;;0.40;;
12593;SDS011;6362;50.208;9.182;2023-07-28T10:30:00;1.15;;;0.35;;
12593;SDS011;6362;50.208;9.182;2023-07-28T10:32:33;6.65;;;0.60;;
12593;SDS011;6362;50.208;9.182;2023-07-28T10:35:09;3.35;;;0.70;;
12593;SDS011;6362;50.208;9.182;2023-07-28T10:37:37;1.20;;;0.32;;
12593;SDS011;6362;50.208;9.182;2023-07-28T10:42:51;0.93;;;0.50;;
12593;SDS011;6362;50.208;9.182;2023-07-28T10:45:18;0.57;;;0.45;;
12593;SDS011;6362;50.208;9.182;2023-07-28T10:47:44;0.82;;;0.40;;
12593;SDS011;6362;50.208;9.182;2023-07-28T10:50:11;2.78;;;0.40;;
12593;SDS011;6362;50.208;9.182;2023-07-28T10:52:40;0.98;;;0.38;;
12593;SDS011;6362;50.208;9.182;2023-07-28T10:55:16;0.47;;;0.43;;
12593;SDS011;6362;50.208;9.182;2023-07-28T10:57:46;0.50;;;0.30;;
12593;SDS011;6362;50.208;9.182;2023-07-28T11:00:14;1.27;;;0.32;;
12593;SDS011;6362;50.208;9.182;2023-07-28T11:02:42;4.30;;;0.40;;
12593;SDS011;6362;50.208;9.182;2023-07-28T11:05:12;3.90;;;0.35;;
12593;SDS011;6362;50.208;9.182;2023-07-28T11:07:45;4.45;;;0.50;;
12593;SDS011;6362;50.208;9.182;2023-07-28T11:10:12;1.88;;;0.40;;
12593;SDS011;6362;50.208;9.182;2023-07-28T11:12:42;0.55;;;0.40;;
12593;SDS011;6362;50.208;9.182;2023-07-28T11:15:09;0.73;;;0.40;;
12593;SDS011;6362;50.208;9.182;2023-07-28T11:17:41;1.23;;;0.47;;
12593;SDS011;6362;50.208;9.182;2023-07-28T11:20:19;1.67;;;0.45;;
12593;SDS011;6362;50.208;9.182;2023-07-28T11:22:46;0.63;;;0.30;;
12593;SDS011;6362;50.208;9.182;2023-07-28T11:25:17;1.20;;;0.60;;
12593;SDS011;6362;50.208;9.182;2023-07-28T11:27:44;1.60;;;0.30;;
12593;SDS011;6362;50.208;9.182;2023-07-28T11:30:16;0.77;;;0.47;;
12593;SDS011;6362;50.208;9.182;2023-07-28T11:32:44;0.55;;;0.55;;
12593;SDS011;6362;50.208;9.182;2023-07-28T11:35:11;2.35;;;0.70;;
12593;SDS011;6362;50.208;9.182;2023-07-28T11:37:38;3.33;;;0.50;;
12593;SDS011;6362;50.208;9.182;2023-07-28T11:40:06;0.68;;;0.45;;
12593;SDS011;6362;50.208;9.182;2023-07-28T11:42:36;0.20;;;0.20;;
12593;SDS011;6362;50.208;9.182;2023-07-28T11:45:03;1.42;;;0.60;;
12593;SDS011;6362;50.208;9.182;2023-07-28T11:47:29;2.20;;;0.47;;
12593;SDS011;6362;50.208;9.182;2023-07-28T11:49:56;1.13;;;0.70;;
12593;SDS011;6362;50.208;9.182;2023-07-28T11:52:24;0.63;;;0.63;;
12593;SDS011;6362;50.208;9.182;2023-07-28T11:54:54;0.90;;;0.60;;
12593;SDS011;6362;50.208;9.182;2023-07-28T11:57:19;1.27;;;0.70;;
12593;SDS011;6362;50.208;9.182;2023-07-28T11:59:46;1.40;;;0.75;;
12593;SDS011;6362;50.208;9.182;2023-07-28T12:02:11;2.92;;;0.65;;
12593;SDS011;6362;50.208;9.182;2023-07-28T12:04:38;3.30;;;0.70;;
12593;SDS011;6362;50.208;9.182;2023-07-28T12:07:08;2.97;;;0.80;;
12593;SDS011;6362;50.208;9.182;2023-07-28T12:12:11;1.05;;;0.85;;
12593;SDS011;6362;50.208;9.182;2023-07-28T12:14:40;1.55;;;0.98;;
12593;SDS011;6362;50.208;9.182;2023-07-28T12:17:15;1.42;;;0.90;;
12593;SDS011;6362;50.208;9.182;2023-07-28T12:22:36;0.60;;;0.60;;
12593;SDS011;6362;50.208;9.182;2023-07-28T12:25:03;0.65;;;0.60;;
12593;SDS011;6362;50.208;9.182;2023-07-28T12:27:29;0.95;;;0.70;;
12593;SDS011;6362;50.208;9.182;2023-07-28T12:29:55;1.48;;;0.80;;
12593;SDS011;6362;50.208;9.182;2023-07-28T12:32:21;1.77;;;1.23;;
12593;SDS011;6362;50.208;9.182;2023-07-28T12:34:47;1.20;;;1.10;;
12593;SDS011;6362;50.208;9.182;2023-07-28T12:37:13;2.47;;;1.10;;
12593;SDS011;6362;50.208;9.182;2023-07-28T12:39:39;1.20;;;1.10;;
12593;SDS011;6362;50.208;9.182;2023-07-28T12:42:08;1.73;;;1.23;;
12593;SDS011;6362;50.208;9.182;2023-07-28T12:44:34;3.83;;;2.10;;
12593;SDS011;6362;50.208;9.182;2023-07-28T12:47:00;2.25;;;1.70;;
12593;SDS011;6362;50.208;9.182;2023-07-28T12:49:26;1.90;;;1.27;;
12593;SDS011;6362;50.208;9.182;2023-07-28T12:51:54;5.18;;;1.50;;
12593;SDS011;6362;50.208;9.182;2023-07-28T12:54:26;2.90;;;1.45;;
12593;SDS011;6362;50.208;9.182;2023-07-28T12:56:53;1.65;;;1.30;;
12593;SDS011;6362;50.208;9.182;2023-07-28T12:59:19;2.05;;;1.25;;
12593;SDS011;6362;50.208;9.182;2023-07-28T13:01:45;2.15;;;1.45;;
12593;SDS011;6362;50.208;9.182;2023-07-28T13:04:10;1.40;;;1.30;;
12593;SDS011;6362;50.208;9.182;2023-07-28T13:06:36;2.78;;;1.23;;
12593;SDS011;6362;50.208;9.182;2023-07-28T13:09:02;1.30;;;1.10;;
12593;SDS011;6362;50.208;9.182;2023-07-28T13:11:29;3.40;;;1.10;;
12593;SDS011;6362;50.208;9.182;2023-07-28T13:13:55;3.58;;;1.35;;
12593;SDS011;6362;50.208;9.182;2023-07-28T13:16:20;4.15;;;1.38;;
12593;SDS011;6362;50.208;9.182;2023-07-28T13:18:46;1.58;;;1.20;;
12593;SDS011;6362;50.208;9.182;2023-07-28T13:21:12;2.03;;;1.40;;
12593;SDS011;6362;50.208;9.182;2023-07-28T13:23:38;3.33;;;1.27;;
12593;SDS011;6362;50.208;9.182;2023-07-28T13:26:03;3.10;;;1.50;;
12593;SDS011;6362;50.208;9.182;2023-07-28T13:28:29;2.53;;;1.35;;
12593;SDS011;6362;50.208;9.182;2023-07-28T13:30:55;4.50;;;1.50;;
12593;SDS011;6362;50.208;9.182;2023-07-28T13:33:21;1.55;;;1.20;;
12593;SDS011;6362;50.208;9.182;2023-07-28T13:35:46;1.27;;;1.17;;
12593;SDS011;6362;50.208;9.182;2023-07-28T13:38:12;1.45;;;1.23;;
12593;SDS011;6362;50.208;9.182;2023-07-28T13:40:37;1.38;;;1.23;;
12593;SDS011;6362;50.208;9.182;2023-07-28T13:43:03;2.55;;;1.45;;
12593;SDS011;6362;50.208;9.182;2023-07-28T13:45:29;1.45;;;1.20;;
12593;SDS011;6362;50.208;9.182;2023-07-28T13:47:54;1.30;;;1.20;;
12593;SDS011;6362;50.208;9.182;2023-07-28T13:50:20;1.30;;;1.20;;
12593;SDS011;6362;50.208;9.182;2023-07-28T13:52:45;1.27;;;1.08;;
12593;SDS011;6362;50.208;9.182;2023-07-28T13:55:11;1.20;;;1.02;;
12593;SDS011;6362;50.208;9.182;2023-07-28T13:57:36;2.00;;;1.38;;
12593;SDS011;6362;50.208;9.182;2023-07-28T14:00:02;1.92;;;1.20;;
12593;SDS011;6362;50.208;9.182;2023-07-28T14:02:28;2.03;;;1.30;;
12593;SDS011;6362;50.208;9.182;2023-07-28T14:04:53;1.90;;;1.40;;
12593;SDS011;6362;50.208;9.182;2023-07-28T14:07:19;1.67;;;1.00;;
12593;SDS011;6362;50.208;9.182;2023-07-28T14:09:45;2.40;;;1.17;;
12593;SDS011;6362;50.208;9.182;2023-07-28T14:12:11;1.98;;;1.10;;
12593;SDS011;6362;50.208;9.182;2023-07-28T14:14:36;1.27;;;0.90;;
12593;SDS011;6362;50.208;9.182;2023-07-28T14:17:02;1.67;;;1.30;;
12593;SDS011;6362;50.208;9.182;2023-07-28T14:19:27;1.17;;;1.00;;
12593;SDS011;6362;50.208;9.182;2023-07-28T14:21:53;2.08;;;1.02;;
12593;SDS011;6362;50.208;9.182;2023-07-28T14:24:18;2.88;;;1.40;;
12593;SDS011;6362;50.208;9.182;2023-07-28T14:26:44;1.25;;;1.10;;
12593;SDS011;6362;50.208;9.182;2023-07-28T14:29:10;2.65;;;1.38;;
12593;SDS011;6362;50.208;9.182;2023-07-28T14:31:35;1.83;;;1.30;;
12593;SDS011;6362;50.208;9.182;2023-07-28T14:34:01;3.05;;;1.20;;
12593;SDS011;6362;50.208;9.182;2023-07-28T14:36:26;1.35;;;1.05;;
12593;SDS011;6362;50.208;9.182;2023-07-28T14:38:51;2.22;;;1.23;;
12593;SDS011;6362;50.208;9.182;2023-07-28T14:41:17;2.92;;;1.30;;
12593;SDS011;6362;50.208;9.182;2023-07-28T14:43:42;3.08;;;1.38;;
12593;SDS011;6362;50.208;9.182;2023-07-28T14:46:08;2.45;;;1.48;;
12593;SDS011;6362;50.208;9.182;2023-07-28T14:48:33;2.55;;;1.38;;
12593;SDS011;6362;50.208;9.182;2023-07-28T14:51:00;2.95;;;1.55;;
12593;SDS011;6362;50.208;9.182;2023-07-28T14:53:33;1.98;;;1.35;;
12593;SDS011;6362;50.208;9.182;2023-07-28T14:56:00;1.93;;;1.37;;
12593;SDS011;6362;50.208;9.182;2023-07-28T14:58:27;1.88;;;1.45;;
12593;SDS011;6362;50.208;9.182;2023-07-28T15:00:53;2.47;;;1.40;;
12593;SDS011;6362;50.208;9.182;2023-07-28T15:03:18;3.33;;;1.50;;
12593;SDS011;6362;50.208;9.182;2023-07-28T15:05:44;1.80;;;1.40;;
12593;SDS011;6362;50.208;9.182;2023-07-28T15:08:10;1.92;;;1.40;;
12593;SDS011;6362;50.208;9.182;2023-07-28T15:10:35;2.58;;;1.50;;
12593;SDS011;6362;50.208;9.182;2023-07-28T15:13:01;1.70;;;1.52;;
12593;SDS011;6362;50.208;9.182;2023-07-28T15:15:26;1.73;;;1.42;;